Time;durP1;ratioP1;P1;durP2;ratioP2;P2;SDS_P1;SDS_P2;PMS_P1;PMS_P2;Temp;Humidity;BMP_temperature;BMP_pressure;BME280_temperature;BME280_humidity;BME280_pressure;Samples;Min_cycle;Max_cycle;Signal;HPM_P1;HPM_P2
2022/09/02 00:01:42;;;;;;;10.25;5.43;;;24.60;99.90;;;;;;5044991;28;20037;-69
2022/09/02 00:04:14;;;;;;;7.65;5.00;;;24.70;99.90;;;;;;5050966;28;20058;-70
2022/09/02 00:06:42;;;;;;;8.88;5.30;;;24.70;99.90;;;;;;5081000;28;20040;-70
2022/09/02 00:09:10;;;;;;;9.65;5.38;;;24.70;99.90;;;;;;5080119;28;20541;-69
2022/09/02 00:11:37;;;;;;;9.48;5.00;;;24.70;99.90;;;;;;5073144;28;20037;-69
2022/09/02 00:14:06;;;;;;;8.27;4.90;;;24.70;99.90;;;;;;5056217;28;20186;-69
2022/09/02 00:16:32;;;;;;;11.10;4.95;;;24.70;99.90;;;;;;5064096;28;20048;-69
2022/09/02 00:19:01;;;;;;;9.27;4.03;;;24.70;99.90;;;;;;5046224;28;20037;-70
2022/09/02 00:21:27;;;;;;;8.80;4.28;;;24.70;99.90;;;;;;5065517;28;20044;-69
2022/09/02 00:23:54;;;;;;;7.25;4.28;;;24.70;99.90;;;;;;5067221;28;20041;-69
2022/09/02 00:26:20;;;;;;;9.38;4.43;;;24.70;99.90;;;;;;5051820;28;20385;-69
2022/09/02 00:28:46;;;;;;;9.25;4.28;;;24.70;99.90;;;;;;5063924;28;20392;-70
2022/09/02 00:31:13;;;;;;;9.63;5.05;;;24.70;99.90;;;;;;5083324;28;20039;-69
2022/09/02 00:33:40;;;;;;;7.45;4.07;;;24.70;99.90;;;;;;5058622;28;20037;-69
2022/09/02 00:36:06;;;;;;;9.07;4.15;;;24.70;99.90;;;;;;5039787;28;20037;-70
2022/09/02 00:38:34;;;;;;;6.43;3.72;;;24.70;99.90;;;;;;5064006;28;20188;-69
2022/09/02 00:41:04;;;;;;;8.43;4.07;;;24.70;99.90;;;;;;5048669;28;20361;-68
2022/09/02 00:43:48;;;;;;;7.72;4.10;;;24.70;99.90;;;;;;5055171;28;20037;-69
2022/09/02 00:46:18;;;;;;;7.68;4.43;;;24.60;99.90;;;;;;5046260;28;20496;-69
2022/09/02 00:49:04;;;;;;;8.50;4.32;;;24.60;99.90;;;;;;5048702;28;20096;-69
2022/09/02 00:51:50;;;;;;;8.85;4.50;;;24.60;99.90;;;;;;5056479;28;20194;-69
2022/09/02 00:54:19;;;;;;;8.73;4.28;;;24.60;99.90;;;;;;5080285;28;20032;-69
2022/09/02 00:56:46;;;;;;;12.00;4.90;;;24.60;99.90;;;;;;5047425;28;20032;-69
2022/09/02 00:59:22;;;;;;;9.73;4.07;;;24.60;99.90;;;;;;5070882;28;20033;-69
2022/09/02 01:01:49;;;;;;;9.18;4.43;;;24.60;99.90;;;;;;5051322;28;20477;-69
2022/09/02 01:04:16;;;;;;;10.65;5.15;;;24.60;99.90;;;;;;5050491;28;20392;-69
2022/09/02 01:06:42;;;;;;;8.68;4.30;;;24.50;99.90;;;;;;5062423;28;20033;-70
2022/09/02 01:09:13;;;;;;;8.48;4.57;;;24.50;99.90;;;;;;5032080;28;20468;-69
2022/09/02 01:11:46;;;;;;;8.90;4.75;;;24.50;99.90;;;;;;5079429;28;20733;-69
2022/09/02 01:14:14;;;;;;;8.07;4.50;;;24.50;99.90;;;;;;5038373;28;20033;-69
2022/09/02 01:16:45;;;;;;;6.00;4.25;;;24.40;99.90;;;;;;5062933;28;20040;-69
2022/09/02 01:19:25;;;;;;;7.57;4.85;;;24.40;99.90;;;;;;5057417;28;20037;-68
2022/09/02 01:21:53;;;;;;;10.68;4.78;;;24.40;99.90;;;;;;5053086;28;20090;-69
2022/09/02 01:24:27;;;;;;;8.60;4.75;;;24.40;99.90;;;;;;5057730;28;20464;-69
2022/09/02 01:26:59;;;;;;;8.55;4.55;;;24.40;99.90;;;;;;5048982;28;20033;-69
2022/09/02 01:29:32;;;;;;;8.00;4.53;;;24.40;99.90;;;;;;5064534;28;20032;-70
2022/09/02 01:31:58;;;;;;;11.68;4.82;;;24.40;99.90;;;;;;5045204;28;20058;-69
2022/09/02 01:34:24;;;;;;;9.02;4.43;;;24.40;99.90;;;;;;5061959;28;20041;-69
2022/09/02 01:36:50;;;;;;;8.88;4.35;;;24.40;99.90;;;;;;5051066;28;20069;-69
2022/09/02 01:39:16;;;;;;;7.50;4.50;;;24.40;99.90;;;;;;5048987;28;20437;-69
2022/09/02 01:41:43;;;;;;;7.13;4.20;;;24.40;99.90;;;;;;5054024;28;20032;-69
2022/09/02 01:44:09;;;;;;;6.13;3.78;;;24.30;99.90;;;;;;5050111;28;20029;-70
2022/09/02 01:46:36;;;;;;;9.15;4.57;;;24.40;99.90;;;;;;5051875;28;20044;-69
2022/09/02 01:49:03;;;;;;;6.05;3.35;;;24.50;99.90;;;;;;5080259;28;20592;-70
2022/09/02 01:51:30;;;;;;;7.55;4.18;;;24.40;99.90;;;;;;5047440;28;20154;-69
2022/09/02 01:53:55;;;;;;;4.90;3.47;;;24.40;99.90;;;;;;5048028;28;20033;-69
2022/09/02 01:56:21;;;;;;;9.20;4.00;;;24.40;99.90;;;;;;5047272;28;20036;-69
2022/09/02 01:58:48;;;;;;;8.10;3.72;;;24.40;99.90;;;;;;5064260;28;20476;-69
2022/09/02 02:01:14;;;;;;;7.95;4.13;;;24.40;99.90;;;;;;5046148;28;20029;-69
2022/09/02 02:03:40;;;;;;;7.53;3.83;;;24.40;99.90;;;;;;5048085;28;20044;-69
2022/09/02 02:06:11;;;;;;;6.72;4.18;;;24.40;99.90;;;;;;5046609;28;20459;-70
2022/09/02 02:08:38;;;;;;;7.53;4.10;;;24.40;99.90;;;;;;5041407;28;20029;-69
2022/09/02 02:11:05;;;;;;;8.57;4.03;;;24.30;99.90;;;;;;5046960;28;20036;-69
2022/09/02 02:13:31;;;;;;;11.13;3.90;;;24.30;99.90;;;;;;5049045;28;20041;-69
2022/09/02 02:15:57;;;;;;;10.02;4.10;;;24.30;99.90;;;;;;5036390;28;20175;-69
2022/09/02 02:18:23;;;;;;;7.05;3.72;;;24.40;99.90;;;;;;5046881;28;20037;-68
2022/09/02 02:20:49;;;;;;;6.25;4.07;;;24.40;99.90;;;;;;5048355;28;20062;-69
2022/09/02 02:23:16;;;;;;;8.05;3.75;;;24.30;99.90;;;;;;5048664;28;20041;-70
2022/09/02 02:25:42;;;;;;;7.82;3.88;;;24.30;99.90;;;;;;5046824;28;20037;-69
2022/09/02 02:28:09;;;;;;;9.00;3.60;;;24.30;99.90;;;;;;5046178;28;20162;-69
2022/09/02 02:30:35;;;;;;;12.27;3.70;;;24.30;99.90;;;;;;5052435;28;20043;-70
2022/09/02 02:33:01;;;;;;;10.48;4.45;;;24.30;99.90;;;;;;5049686;28;20070;-70
2022/09/02 02:35:27;;;;;;;8.30;3.58;;;24.30;99.90;;;;;;5048959;28;20037;-69
2022/09/02 02:37:53;;;;;;;7.38;3.92;;;24.30;99.90;;;;;;5047113;28;20044;-69
2022/09/02 02:40:22;;;;;;;12.25;3.40;;;24.40;99.90;;;;;;5047655;28;20043;-69
2022/09/02 02:42:48;;;;;;;9.65;3.50;;;24.40;99.90;;;;;;5049176;28;20582;-70
2022/09/02 02:45:14;;;;;;;9.52;3.70;;;24.40;99.90;;;;;;5048765;28;20083;-70
2022/09/02 02:47:41;;;;;;;11.50;3.65;;;24.50;99.90;;;;;;5045918;28;20041;-68
2022/09/02 02:50:11;;;;;;;11.18;3.97;;;24.50;99.90;;;;;;5045851;28;20135;-69
2022/09/02 02:52:39;;;;;;;6.72;3.22;;;24.50;99.90;;;;;;5048526;28;20086;-68
2022/09/02 02:55:07;;;;;;;9.35;3.55;;;24.50;99.90;;;;;;5037863;28;20044;-69
2022/09/02 02:57:33;;;;;;;9.27;3.58;;;24.50;99.90;;;;;;5050221;28;20020;-68
2022/09/02 03:00:19;;;;;;;7.78;3.25;;;24.50;99.90;;;;;;5043754;28;20041;-69
2022/09/02 03:02:45;;;;;;;6.78;3.30;;;24.50;99.90;;;;;;5067177;28;20033;-69
2022/09/02 03:05:13;;;;;;;8.40;3.47;;;24.50;99.90;;;;;;5064298;28;20503;-69
2022/09/02 03:07:40;;;;;;;9.07;4.10;;;24.50;99.90;;;;;;5053389;28;20110;-69
2022/09/02 03:10:09;;;;;;;9.45;3.75;;;24.50;99.90;;;;;;5051879;28;20116;-70
2022/09/02 03:12:37;;;;;;;7.97;3.65;;;24.40;99.90;;;;;;5065335;28;20489;-69
2022/09/02 03:15:05;;;;;;;8.95;3.85;;;24.40;99.90;;;;;;5048854;28;20044;-69
2022/09/02 03:17:31;;;;;;;10.25;3.63;;;24.40;99.90;;;;;;5053076;28;20029;-69
2022/09/02 03:19:58;;;;;;;9.10;3.92;;;24.40;99.90;;;;;;5052872;28;20045;-69
2022/09/02 03:22:26;;;;;;;11.68;3.85;;;24.40;99.90;;;;;;5088644;28;20045;-68
2022/09/02 03:24:53;;;;;;;8.98;3.70;;;24.30;99.90;;;;;;5042991;28;20041;-69
2022/09/02 03:27:19;;;;;;;12.32;3.47;;;24.30;99.90;;;;;;5054148;28;20041;-69
2022/09/02 03:29:45;;;;;;;9.88;3.78;;;24.30;99.90;;;;;;5051993;28;20033;-69
2022/09/02 03:32:11;;;;;;;10.20;3.72;;;24.30;99.90;;;;;;5051697;28;20040;-69
2022/09/02 03:34:37;;;;;;;8.40;3.70;;;24.30;99.90;;;;;;5085093;28;20044;-69
2022/09/02 03:37:03;;;;;;;13.18;3.63;;;24.30;99.90;;;;;;5048669;28;20715;-69
2022/09/02 03:39:28;;;;;;;15.48;4.55;;;24.40;99.90;;;;;;5051535;28;20041;-70
2022/09/02 03:41:54;;;;;;;13.25;3.90;;;24.30;99.90;;;;;;5049763;28;20456;-70
2022/09/02 03:44:20;;;;;;;18.08;4.13;;;24.30;99.90;;;;;;5049403;28;20025;-69
2022/09/02 03:46:46;;;;;;;10.48;3.28;;;24.30;99.90;;;;;;5048572;28;20088;-69
2022/09/02 03:49:12;;;;;;;10.82;3.88;;;24.30;99.90;;;;;;5050122;28;20037;-69
2022/09/02 03:51:42;;;;;;;11.00;4.00;;;24.30;99.90;;;;;;5086116;28;20040;-69
2022/09/02 03:54:09;;;;;;;12.85;4.15;;;24.30;99.90;;;;;;5051525;28;20036;-69
2022/09/02 03:56:36;;;;;;;12.05;3.65;;;24.30;99.90;;;;;;5064856;28;20056;-69
2022/09/02 03:59:07;;;;;;;14.30;4.20;;;24.30;99.90;;;;;;5050863;28;20420;-70
2022/09/02 04:01:35;;;;;;;12.93;5.00;;;24.30;99.90;;;;;;5051489;28;20067;-69
2022/09/02 04:04:01;;;;;;;14.00;4.05;;;24.40;99.90;;;;;;5048912;28;20122;-69
2022/09/02 04:06:28;;;;;;;11.50;4.60;;;24.30;99.90;;;;;;5048194;28;20137;-70
2022/09/02 04:08:54;;;;;;;10.82;4.30;;;24.30;99.90;;;;;;5074378;28;20372;-69
2022/09/02 04:11:22;;;;;;;11.55;4.03;;;24.30;99.90;;;;;;5051344;28;20044;-69
2022/09/02 04:13:50;;;;;;;14.00;4.15;;;24.40;99.90;;;;;;5051008;28;20847;-69
2022/09/02 04:16:19;;;;;;;10.70;3.92;;;24.40;99.90;;;;;;5051327;28;20067;-69
2022/09/02 04:18:46;;;;;;;15.98;4.40;;;24.30;99.90;;;;;;5051096;28;20368;-69
2022/09/02 04:21:13;;;;;;;11.75;4.53;;;24.20;99.90;;;;;;5050709;28;20469;-69
2022/09/02 04:23:39;;;;;;;12.45;4.07;;;24.30;99.90;;;;;;5066210;28;20025;-70
2022/09/02 04:26:07;;;;;;;16.17;4.38;;;24.20;99.90;;;;;;5049138;28;20037;-70
2022/09/02 04:28:33;;;;;;;14.43;4.10;;;24.20;99.90;;;;;;5049853;28;20040;-69
2022/09/02 04:30:59;;;;;;;14.52;4.35;;;24.20;99.90;;;;;;5047182;28;20092;-69
2022/09/02 04:33:24;;;;;;;12.80;4.35;;;24.20;99.90;;;;;;5062867;28;20120;-69
2022/09/02 04:35:51;;;;;;;15.13;4.75;;;24.20;99.90;;;;;;5041880;28;20463;-69
2022/09/02 04:38:17;;;;;;;17.52;4.32;;;24.20;99.90;;;;;;5057846;28;20120;-69
2022/09/02 04:40:46;;;;;;;16.40;4.50;;;24.10;99.90;;;;;;5046804;28;20477;-69
2022/09/02 04:43:12;;;;;;;14.95;4.22;;;24.10;99.90;;;;;;5049380;28;20037;-69
2022/09/02 04:45:40;;;;;;;18.02;5.03;;;24.10;99.90;;;;;;5048389;28;20044;-69
2022/09/02 04:48:06;;;;;;;16.98;4.47;;;24.10;99.90;;;;;;5060903;28;20036;-68
2022/09/02 04:50:34;;;;;;;15.82;5.00;;;24.00;99.90;;;;;;5050267;28;20029;-70
2022/09/02 04:52:59;;;;;;;15.35;4.85;;;24.00;99.90;;;;;;5066693;28;20186;-69
2022/09/02 04:55:25;;;;;;;14.07;3.80;;;24.00;99.90;;;;;;5067322;28;20058;-69
2022/09/02 04:57:51;;;;;;;20.38;4.85;;;23.90;99.90;;;;;;5047929;28;20519;-69
2022/09/02 05:00:18;;;;;;;13.50;4.78;;;24.00;99.90;;;;;;5050451;28;20040;-69
2022/09/02 05:02:44;;;;;;;16.70;4.05;;;24.00;99.90;;;;;;5048496;28;20168;-70
2022/09/02 05:05:10;;;;;;;16.08;5.07;;;24.00;99.90;;;;;;5049360;28;20911;-69
2022/09/02 05:07:38;;;;;;;14.65;4.22;;;23.90;99.90;;;;;;5048000;28;20051;-69
2022/09/02 05:10:05;;;;;;;15.70;5.35;;;24.00;99.90;;;;;;5050254;28;20036;-69
2022/09/02 05:12:34;;;;;;;19.80;5.45;;;23.90;99.90;;;;;;5036548;28;20037;-69
2022/09/02 05:15:00;;;;;;;18.13;5.10;;;23.90;99.90;;;;;;5051218;28;20132;-70
2022/09/02 05:17:34;;;;;;;16.40;5.80;;;23.90;99.90;;;;;;5048887;28;20033;-70
2022/09/02 05:20:03;;;;;;;13.82;5.07;;;23.90;99.90;;;;;;5046956;28;20449;-70
2022/09/02 05:22:28;;;;;;;14.75;4.72;;;23.90;99.90;;;;;;5047611;28;20132;-69
2022/09/02 05:24:55;;;;;;;15.75;4.80;;;23.90;99.90;;;;;;5049297;28;20529;-70
2022/09/02 05:27:22;;;;;;;13.25;4.93;;;24.00;99.90;;;;;;5082033;28;20120;-70
2022/09/02 05:29:48;;;;;;;17.77;4.63;;;24.00;99.90;;;;;;5042524;28;20067;-70
2022/09/02 05:32:14;;;;;;;16.55;4.50;;;23.90;99.90;;;;;;5048634;28;20055;-69
2022/09/02 05:34:40;;;;;;;17.20;4.53;;;23.90;99.90;;;;;;5050820;28;20037;-70
2022/09/02 05:37:06;;;;;;;14.57;4.88;;;24.00;99.90;;;;;;5046193;28;20030;-70
2022/09/02 05:39:32;;;;;;;12.85;4.57;;;24.00;99.90;;;;;;5036741;28;20029;-69
2022/09/02 05:41:58;;;;;;;14.38;4.70;;;24.10;99.90;;;;;;5048847;28;20048;-69
2022/09/02 05:44:24;;;;;;;17.65;5.25;;;24.10;99.90;;;;;;5047929;28;20391;-70
2022/09/02 05:46:50;;;;;;;19.40;5.38;;;24.00;99.90;;;;;;5048376;28;20025;-69
2022/09/02 05:49:16;;;;;;;17.42;5.32;;;24.10;99.90;;;;;;5045686;28;20043;-70
2022/09/02 05:51:55;;;;;;;12.05;5.10;;;24.00;99.90;;;;;;5052196;28;20040;-70
2022/09/02 05:54:24;;;;;;;15.52;4.78;;;24.10;99.90;;;;;;5045355;28;20524;-70
2022/09/02 05:56:52;;;;;;;26.92;5.35;;;24.10;99.90;;;;;;5049463;28;20396;-69
2022/09/02 05:59:20;;;;;;;14.05;4.82;;;24.10;99.90;;;;;;5047198;28;20036;-71
2022/09/02 06:01:47;;;;;;;14.73;4.88;;;24.20;99.90;;;;;;5047658;28;20047;-70
2022/09/02 06:04:13;;;;;;;14.23;5.15;;;24.20;99.90;;;;;;5045397;28;20048;-70
2022/09/02 06:06:40;;;;;;;14.18;4.78;;;24.20;99.90;;;;;;5047569;28;20032;-70
2022/09/02 06:09:10;;;;;;;12.70;5.30;;;24.20;99.90;;;;;;5068466;28;20106;-69
2022/09/02 06:11:38;;;;;;;14.77;5.00;;;24.30;99.90;;;;;;5046803;28;20107;-69
2022/09/02 06:14:07;;;;;;;12.02;5.18;;;24.20;99.90;;;;;;5047119;28;20036;-69
2022/09/02 06:16:34;;;;;;;16.30;4.65;;;24.30;99.90;;;;;;5063061;28;20037;-69
2022/09/02 06:19:02;;;;;;;14.20;5.00;;;24.40;99.90;;;;;;5076290;28;20038;-70
2022/09/02 06:21:29;;;;;;;15.65;4.53;;;24.50;99.90;;;;;;5071581;28;20037;-70
2022/09/02 06:23:54;;;;;;;12.98;5.10;;;24.50;99.90;;;;;;5050268;28;20041;-70
2022/09/02 06:26:21;;;;;;;11.77;4.70;;;24.70;99.90;;;;;;5049831;28;20167;-70
2022/09/02 06:28:47;;;;;;;13.60;4.60;;;24.70;99.90;;;;;;5050502;28;20116;-69
2022/09/02 06:31:19;;;;;;;13.30;4.93;;;24.80;99.90;;;;;;5056689;28;20139;-70
2022/09/02 06:33:50;;;;;;;17.90;5.78;;;24.80;99.90;;;;;;5060007;28;20033;-70
2022/09/02 06:36:18;;;;;;;13.30;5.50;;;24.90;99.90;;;;;;5066696;28;20045;-70
2022/09/02 06:38:47;;;;;;;20.33;5.40;;;25.00;99.90;;;;;;5054132;28;20487;-69
2022/09/02 06:41:14;;;;;;;12.52;4.85;;;25.00;99.90;;;;;;5050450;28;20033;-70
2022/09/02 06:43:40;;;;;;;14.18;5.28;;;25.10;99.90;;;;;;5055566;28;20435;-69
2022/09/02 06:46:07;;;;;;;13.32;5.13;;;25.10;99.90;;;;;;5082512;28;20036;-70
2022/09/02 06:48:33;;;;;;;14.68;4.82;;;25.20;99.90;;;;;;5066247;28;20068;-69
2022/09/02 06:51:00;;;;;;;15.40;4.90;;;25.30;99.90;;;;;;5068252;28;20043;-69
2022/09/02 06:53:26;;;;;;;13.15;4.75;;;25.40;99.90;;;;;;5062985;28;20594;-68
2022/09/02 06:55:53;;;;;;;12.68;4.70;;;25.50;99.90;;;;;;5082931;28;20110;-69
2022/09/02 06:58:19;;;;;;;15.85;5.32;;;25.50;99.90;;;;;;5045951;28;20032;-69
2022/09/02 07:00:45;;;;;;;16.80;5.60;;;25.60;99.90;;;;;;5064391;28;20059;-70
2022/09/02 07:06:09;;;;;;;17.33;5.43;;;25.80;99.90;;;;;;5036915;28;20120;-70
2022/09/02 07:08:40;;;;;;;17.27;5.65;;;25.90;99.90;;;;;;5051225;28;20041;-69
2022/09/02 07:11:14;;;;;;;15.55;4.95;;;25.90;99.90;;;;;;5051644;28;20067;-70
2022/09/02 07:13:40;;;;;;;17.23;5.25;;;26.00;99.90;;;;;;5038139;28;20048;-70
2022/09/02 07:16:06;;;;;;;15.45;5.05;;;26.10;99.90;;;;;;5052213;28;20423;-70
2022/09/02 07:18:33;;;;;;;15.48;5.28;;;26.20;99.90;;;;;;5083403;28;20035;-70
2022/09/02 07:20:59;;;;;;;17.27;5.22;;;26.30;99.90;;;;;;5051960;28;20041;-70
2022/09/02 07:23:25;;;;;;;16.27;5.28;;;26.40;99.90;;;;;;5091206;27;20568;-69
2022/09/02 07:25:51;;;;;;;19.45;5.20;;;26.50;99.90;;;;;;5051086;28;20093;-70
2022/09/02 07:28:17;;;;;;;16.77;5.00;;;26.50;99.90;;;;;;5069780;28;20538;-69
2022/09/02 07:30:44;;;;;;;17.95;5.25;;;26.50;99.90;;;;;;5070441;28;20645;-69
2022/09/02 07:33:14;;;;;;;25.20;5.38;;;26.50;99.90;;;;;;5053648;28;20539;-70
2022/09/02 07:35:44;;;;;;;25.88;6.00;;;26.60;99.90;;;;;;5036621;28;20064;-71
2022/09/02 07:38:11;;;;;;;21.35;6.03;;;26.60;99.90;;;;;;5042841;28;20037;-70
2022/09/02 07:40:39;;;;;;;13.38;5.03;;;26.70;99.90;;;;;;5050415;28;20126;-71
2022/09/02 07:43:06;;;;;;;16.45;4.63;;;26.80;99.90;;;;;;5045628;28;20037;-70
2022/09/02 07:45:33;;;;;;;16.23;4.50;;;26.80;99.90;;;;;;5050539;28;20519;-70
2022/09/02 07:47:59;;;;;;;15.25;5.05;;;27.00;99.90;;;;;;5065216;28;20473;-71
2022/09/02 07:50:25;;;;;;;15.48;4.97;;;27.00;99.90;;;;;;5034155;28;20088;-70
2022/09/02 07:53:12;;;;;;;13.98;5.68;;;27.00;99.90;;;;;;5047974;28;20776;-70
2022/09/02 07:55:40;;;;;;;31.67;5.40;;;27.10;99.90;;;;;;5049125;28;20397;-69
2022/09/02 07:58:06;;;;;;;38.33;6.10;;;27.10;99.90;;;;;;5081504;28;20123;-70
2022/09/02 08:00:32;;;;;;;29.13;5.88;;;27.30;99.90;;;;;;5055692;28;20625;-70
2022/09/02 08:02:59;;;;;;;23.88;5.35;;;27.40;99.90;;;;;;5072972;28;20079;-69
2022/09/02 08:05:26;;;;;;;23.92;5.45;;;27.40;99.90;;;;;;5058161;28;20033;-70
2022/09/02 08:07:52;;;;;;;18.60;5.00;;;27.50;99.90;;;;;;5046867;28;20037;-70
2022/09/02 08:10:19;;;;;;;24.63;4.97;;;27.70;99.90;;;;;;5042151;28;20045;-70
2022/09/02 08:12:45;;;;;;;22.05;4.70;;;27.80;99.90;;;;;;5057883;28;20040;-71
2022/09/02 08:15:12;;;;;;;22.38;5.05;;;28.10;99.90;;;;;;5080243;28;20164;-70
2022/09/02 08:17:43;;;;;;;16.27;4.80;;;28.10;99.90;;;;;;5052446;28;20061;-69
2022/09/02 08:20:11;;;;;;;17.83;4.75;;;28.10;99.90;;;;;;5072285;28;20042;-69
2022/09/02 08:22:38;;;;;;;17.02;4.60;;;28.20;99.90;;;;;;5042075;28;20045;-71
2022/09/02 08:25:04;;;;;;;17.17;4.65;;;28.40;99.90;;;;;;5038111;28;20041;-70
2022/09/02 08:27:31;;;;;;;15.00;4.63;;;28.70;99.90;;;;;;5039118;28;20082;-69
2022/09/02 08:29:57;;;;;;;13.20;4.63;;;28.60;99.90;;;;;;5038121;28;20029;-70
2022/09/02 08:32:24;;;;;;;23.15;6.22;;;28.60;99.90;;;;;;5041275;28;20121;-70
2022/09/02 08:34:50;;;;;;;21.10;5.70;;;28.60;99.90;;;;;;5039739;28;20191;-70
2022/09/02 08:37:17;;;;;;;23.58;5.32;;;28.60;99.90;;;;;;5036979;28;20448;-69
2022/09/02 08:39:44;;;;;;;19.17;5.38;;;28.70;99.90;;;;;;5031937;28;20496;-71
2022/09/02 08:42:22;;;;;;;17.15;5.13;;;28.70;99.90;;;;;;5034762;28;20048;-70
2022/09/02 08:44:54;;;;;;;18.27;5.53;;;28.80;99.90;;;;;;5048951;28;20865;-70
2022/09/02 08:47:28;;;;;;;16.00;4.75;;;28.90;99.90;;;;;;5030718;28;20136;-70
2022/09/02 08:49:59;;;;;;;16.70;4.60;;;29.00;99.90;;;;;;5052718;28;20029;-71
2022/09/02 08:52:35;;;;;;;18.67;4.80;;;29.30;99.90;;;;;;5036504;28;20052;-69
2022/09/02 08:55:02;;;;;;;20.08;4.93;;;29.30;99.90;;;;;;5042549;28;20043;-69
2022/09/02 08:57:30;;;;;;;19.35;4.80;;;29.40;99.90;;;;;;5040936;28;20037;-70
2022/09/02 09:00:00;;;;;;;14.93;4.68;;;29.40;99.90;;;;;;5045064;28;20963;-69
2022/09/02 09:03:17;;;;;;;20.63;4.93;;;29.50;99.90;;;;;;5073201;28;20443;-70
2022/09/02 09:06:06;;;;;;;21.20;5.22;;;29.50;99.90;;;;;;5029753;28;20045;-70
2022/09/02 09:08:47;;;;;;;17.45;5.22;;;29.60;99.90;;;;;;5041399;28;20193;-69
2022/09/02 09:11:28;;;;;;;15.60;4.40;;;29.80;99.90;;;;;;5038744;28;20061;-70
2022/09/02 09:13:57;;;;;;;17.85;4.95;;;29.50;99.90;;;;;;5046595;28;20431;-71
2022/09/02 09:16:44;;;;;;;18.40;4.70;;;29.30;99.90;;;;;;5057684;28;20116;-71
2022/09/02 09:19:14;;;;;;;19.95;5.32;;;29.60;99.90;;;;;;5058257;28;20045;-69
2022/09/02 09:21:42;;;;;;;16.60;4.95;;;29.60;99.90;;;;;;5061140;28;20036;-69
2022/09/02 09:24:35;;;;;;;23.67;5.70;;;29.60;99.90;;;;;;5056176;28;20041;-70
2022/09/02 09:27:23;;;;;;;19.17;4.75;;;29.70;99.90;;;;;;5050504;28;20028;-71
2022/09/02 09:29:50;;;;;;;17.73;5.05;;;29.90;99.90;;;;;;5050178;28;20429;-70
2022/09/02 09:32:22;;;;;;;21.58;4.97;;;30.70;99.90;;;;;;5062616;28;20472;-70
2022/09/02 09:34:51;;;;;;;16.52;4.50;;;31.10;99.90;;;;;;5039937;28;20117;-71
2022/09/02 09:37:35;;;;;;;18.50;4.78;;;31.50;99.90;;;;;;5049744;28;20041;-69
2022/09/02 09:40:22;;;;;;;20.92;5.00;;;31.70;99.90;;;;;;5048760;28;20053;-70
2022/09/02 09:42:56;;;;;;;11.50;4.28;;;31.50;99.90;;;;;;5053075;28;20101;-70
2022/09/02 09:45:31;;;;;;;21.40;5.50;;;31.20;99.90;;;;;;5050796;28;20127;-70
2022/09/02 09:48:15;;;;;;;21.55;5.15;;;30.80;99.90;;;;;;5046500;28;20591;-70
2022/09/02 09:50:56;;;;;;;21.10;4.80;;;30.50;99.90;;;;;;5068208;28;20491;-70
2022/09/02 09:53:31;;;;;;;16.70;5.30;;;30.50;99.90;;;;;;5066417;28;20178;-70
2022/09/02 09:56:06;;;;;;;18.67;4.65;;;30.30;99.90;;;;;;5071798;28;20029;-70
2022/09/02 09:58:45;;;;;;;18.95;4.70;;;30.20;99.90;;;;;;5045042;28;20076;-70
2022/09/02 10:01:21;;;;;;;19.75;4.55;;;30.00;99.90;;;;;;5046145;28;20036;-70
2022/09/02 10:04:02;;;;;;;17.23;4.68;;;30.10;99.90;;;;;;5048875;28;20361;-71
2022/09/02 10:06:31;;;;;;;22.25;4.18;;;30.40;99.90;;;;;;5040720;28;20035;-70
2022/09/02 10:09:03;;;;;;;17.63;4.20;;;30.50;99.90;;;;;;5038005;28;20044;-70
2022/09/02 10:11:31;;;;;;;17.65;3.95;;;30.80;99.90;;;;;;5046182;28;20045;-70
2022/09/02 10:14:07;;;;;;;18.17;4.30;;;31.10;99.90;;;;;;5045637;28;20044;-70
2022/09/02 10:16:47;;;;;;;12.25;4.20;;;31.30;99.90;;;;;;5025104;28;20137;-70
2022/09/02 10:19:50;;;;;;;17.85;4.15;;;31.30;99.90;;;;;;5046312;28;20025;-73
2022/09/02 10:22:44;;;;;;;12.60;3.95;;;30.80;99.90;;;;;;5058309;28;20470;-70
2022/09/02 10:25:30;;;;;;;15.45;4.50;;;30.10;99.90;;;;;;5019744;28;20067;-71
2022/09/02 10:28:17;;;;;;;16.63;3.85;;;29.90;99.90;;;;;;5051881;28;20522;-71
2022/09/02 10:31:04;;;;;;;17.90;4.70;;;29.80;99.90;;;;;;5063270;28;20167;-72
2022/09/02 10:33:40;;;;;;;21.38;4.63;;;29.80;99.90;;;;;;5051384;28;20032;-70
2022/09/02 10:36:15;;;;;;;15.38;3.90;;;29.80;99.90;;;;;;5041383;28;20047;-70
2022/09/02 10:38:46;;;;;;;15.23;4.20;;;29.70;99.90;;;;;;5023660;28;20041;-70
2022/09/02 10:41:15;;;;;;;17.30;4.33;;;29.80;99.90;;;;;;5033102;28;20041;-71
2022/09/02 10:43:59;;;;;;;19.80;5.07;;;29.90;99.90;;;;;;5051937;28;20113;-69
2022/09/02 10:46:25;;;;;;;18.80;4.75;;;30.50;99.90;;;;;;5045189;28;20064;-70
2022/09/02 10:49:03;;;;;;;21.08;4.25;;;31.10;99.90;;;;;;5034594;28;20037;-70
2022/09/02 10:51:57;;;;;;;18.88;4.40;;;31.20;99.90;;;;;;5036227;28;20480;-70
2022/09/02 10:55:01;;;;;;;18.50;3.80;;;31.10;99.90;;;;;;5034631;28;20045;-70
2022/09/02 10:57:36;;;;;;;16.13;4.63;;;30.80;99.90;;;;;;5045092;28;20041;-70
2022/09/02 11:00:11;;;;;;;14.48;3.83;;;30.40;99.90;;;;;;5055200;28;20064;-70
2022/09/02 11:02:41;;;;;;;12.80;4.22;;;30.30;99.90;;;;;;5048731;28;20033;-70
2022/09/02 11:05:13;;;;;;;12.88;4.90;;;30.10;99.90;;;;;;5070998;28;20039;-69
2022/09/02 11:07:51;;;;;;;11.25;4.32;;;30.00;99.90;;;;;;5053310;28;20100;-70
2022/09/02 11:10:50;;;;;;;13.85;4.20;;;29.90;99.90;;;;;;5059725;28;20044;-70
2022/09/02 11:13:37;;;;;;;15.02;4.88;;;29.80;99.90;;;;;;5011444;28;20032;-70
2022/09/02 11:16:15;;;;;;;13.60;5.10;;;30.70;99.90;;;;;;5047082;28;20147;-70
2022/09/02 11:18:57;;;;;;;15.00;5.57;;;30.70;99.90;;;;;;5059079;28;20045;-69
2022/09/02 11:21:49;;;;;;;17.92;5.95;;;31.40;99.90;;;;;;5060905;28;20155;-70
2022/09/02 11:24:25;;;;;;;;;;;31.30;99.90;;;;;;5053400;28;20124;-70
2022/09/02 11:27:14;;;;;;;18.98;5.18;;;31.00;99.90;;;;;;5054620;28;19992;-71
2022/09/02 11:30:05;;;;;;;21.02;4.70;;;31.00;99.90;;;;;;5053583;28;20421;-71
2022/09/02 11:32:42;;;;;;;12.32;4.18;;;30.80;99.90;;;;;;5069685;28;20082;-70
2022/09/02 11:35:15;;;;;;;17.10;5.05;;;30.80;99.90;;;;;;5058351;28;20033;-69
2022/09/02 11:37:47;;;;;;;17.15;5.38;;;30.90;99.90;;;;;;5063828;28;20036;-69
2022/09/02 11:40:17;;;;;;;16.90;5.22;;;31.50;99.90;;;;;;5067573;28;20040;-70
2022/09/02 11:43:07;;;;;;;18.88;5.68;;;31.10;99.90;;;;;;5055897;28;20037;-69
2022/09/02 11:46:12;;;;;;;19.55;4.93;;;30.30;99.90;;;;;;5064882;28;20090;-69
2022/09/02 11:49:08;;;;;;;17.02;4.93;;;30.00;99.90;;;;;;5075507;28;20427;-70
2022/09/02 11:51:50;;;;;;;14.95;4.88;;;30.20;99.90;;;;;;5057915;28;20064;-70
2022/09/02 11:54:18;;;;;;;15.38;4.70;;;30.50;99.90;;;;;;5041789;28;20045;-70
2022/09/02 11:56:48;;;;;;;15.90;4.80;;;32.10;99.90;;;;;;5037791;28;20029;-70
2022/09/02 11:59:41;;;;;;;15.70;5.13;;;33.20;99.90;;;;;;5053205;28;20843;-70
2022/09/02 12:02:07;;;;;;;18.08;4.78;;;32.60;99.90;;;;;;5071759;28;20040;-70
2022/09/02 12:04:33;;;;;;;15.73;4.75;;;32.30;99.90;;;;;;5080454;28;20029;-71
2022/09/02 12:07:22;;;;;;;17.05;5.35;;;31.60;99.90;;;;;;5042677;28;20737;-71
2022/09/02 12:09:52;;;;;;;12.20;4.97;;;31.30;99.90;;;;;;5049475;28;20660;-71
2022/09/02 12:12:36;;;;;;;14.23;5.80;;;31.10;99.90;;;;;;5050197;28;20025;-72
2022/09/02 12:15:05;;;;;;;18.75;5.47;;;32.20;99.90;;;;;;5062698;28;20040;-71
2022/09/02 12:17:44;;;;;;;12.90;4.72;;;32.50;99.90;;;;;;5060708;28;20142;-72
2022/09/02 12:20:33;;;;;;;13.63;4.32;;;33.00;99.90;;;;;;5076809;28;20029;-71
2022/09/02 12:22:58;;;;;;;13.30;4.45;;;33.30;99.90;;;;;;5023544;28;20360;-73
2022/09/02 12:25:24;;;;;;;17.15;4.78;;;33.00;99.90;;;;;;5067768;28;20048;-72
2022/09/02 12:28:08;;;;;;;13.55;4.50;;;33.90;99.90;;;;;;5050350;28;20085;-70
2022/09/02 12:33:31;;;;;;;16.63;4.78;;;33.70;99.90;;;;;;5051576;28;20084;-70
2022/09/02 12:35:58;;;;;;;12.98;4.30;;;33.10;99.90;;;;;;5061551;28;20032;-69
2022/09/02 12:38:35;;;;;;;15.65;4.40;;;33.00;99.90;;;;;;5060920;28;20118;-70
2022/09/02 12:41:04;;;;;;;19.48;5.05;;;32.50;99.90;;;;;;5086500;28;20123;-71
2022/09/02 12:43:45;;;;;;;16.65;4.53;;;32.30;99.90;;;;;;5055913;28;20108;-70
2022/09/02 12:46:46;;;;;;;14.13;4.30;;;32.10;99.90;;;;;;5051237;28;20040;-69
2022/09/02 12:49:24;;;;;;;19.20;4.20;;;32.80;99.90;;;;;;5052533;28;20037;-71
2022/09/02 12:51:50;;;;;;;13.30;4.72;;;32.40;99.90;;;;;;5058032;28;20037;-69
2022/09/02 12:54:17;;;;;;;16.13;4.30;;;32.60;99.90;;;;;;5041339;28;20048;-70
2022/09/02 12:56:50;;;;;;;11.38;4.63;;;32.40;99.90;;;;;;5064924;28;20029;-69
2022/09/02 12:59:31;;;;;;;16.95;4.45;;;32.00;99.90;;;;;;5054955;28;20040;-70
2022/09/02 13:02:42;;;;;;;14.52;4.63;;;32.00;99.90;;;;;;5049882;28;20529;-69
2022/09/02 13:05:29;;;;;;;18.98;5.10;;;31.80;99.90;;;;;;5066246;28;20384;-70